createdAt,value
2023-05-18T00:00:52.921Z,378.00
2023-05-18T00:01:52.903Z,377.00
2023-05-18T00:02:52.994Z,377.00
2023-05-18T00:03:53.161Z,379.00
2023-05-18T00:04:53.080Z,382.00
2023-05-18T00:05:52.907Z,382.00
2023-05-18T00:06:52.901Z,383.00
2023-05-18T00:07:52.912Z,381.00
2023-05-18T00:08:52.979Z,379.00
2023-05-18T00:09:53.149Z,380.00
2023-05-18T00:10:53.092Z,380.00
2023-05-18T00:11:53.159Z,380.00
2023-05-18T00:12:53.201Z,381.00
2023-05-18T00:13:53.269Z,380.00
2023-05-18T00:14:53.314Z,379.00
2023-05-18T00:15:53.398Z,378.00
2023-05-18T00:16:53.431Z,379.00
2023-05-18T00:17:53.590Z,378.00
2023-05-18T00:18:53.572Z,377.00
2023-05-18T00:19:53.590Z,377.00
2023-05-18T00:20:53.681Z,373.00
2023-05-18T00:21:53.709Z,374.00
2023-05-18T00:22:53.787Z,372.00
2023-05-18T00:23:53.786Z,372.00
2023-05-18T00:24:53.784Z,371.00
2023-05-18T00:25:53.773Z,370.00
2023-05-18T00:26:53.772Z,372.00
2023-05-18T00:27:53.778Z,369.00
2023-05-18T00:28:53.768Z,369.00
2023-05-18T00:29:53.806Z,372.00
2023-05-18T00:30:53.782Z,374.00
2023-05-18T00:31:53.805Z,372.00
2023-05-18T00:32:53.804Z,372.00
2023-05-18T00:33:53.802Z,374.00
2023-05-18T00:34:53.794Z,375.00
2023-05-18T00:35:53.802Z,375.00
2023-05-18T00:36:53.793Z,373.00
2023-05-18T00:37:53.801Z,375.00
2023-05-18T00:38:53.839Z,374.00
2023-05-18T00:39:53.912Z,375.00
2023-05-18T00:40:53.960Z,374.00
2023-05-18T00:41:54.016Z,374.00
2023-05-18T00:42:54.058Z,373.00
2023-05-18T00:43:54.133Z,373.00
2023-05-18T00:44:54.168Z,372.00
2023-05-18T00:45:54.239Z,372.00
2023-05-18T00:46:54.278Z,372.00
2023-05-18T00:47:54.304Z,376.00
2023-05-18T00:48:54.275Z,379.00
2023-05-18T00:49:54.286Z,376.00
2023-05-18T00:50:54.281Z,371.00
2023-05-18T00:51:54.281Z,371.00
2023-05-18T00:52:54.287Z,371.00
2023-05-18T00:53:54.318Z,372.00
2023-05-18T00:54:54.298Z,373.00
2023-05-18T00:55:54.278Z,376.00
2023-05-18T00:56:54.291Z,374.00
2023-05-18T00:57:54.292Z,374.00
2023-05-18T00:58:54.280Z,374.00
2023-05-18T00:59:54.292Z,376.00
2023-05-18T01:00:54.323Z,377.00
2023-05-18T01:01:54.290Z,374.00
2023-05-18T01:02:54.364Z,374.00
2023-05-18T01:03:54.282Z,374.00
2023-05-18T01:04:54.296Z,372.00
2023-05-18T01:05:54.287Z,374.00
2023-05-18T01:06:54.305Z,374.00
2023-05-18T01:07:54.344Z,373.00
2023-05-18T01:08:54.340Z,373.00
2023-05-18T01:09:54.376Z,372.00
2023-05-18T01:10:54.370Z,371.00
2023-05-18T01:11:54.372Z,371.00
2023-05-18T01:12:54.359Z,370.00
2023-05-18T01:13:54.365Z,371.00
2023-05-18T01:14:54.392Z,369.00
2023-05-18T01:15:54.386Z,367.00
2023-05-18T01:16:54.423Z,367.00
2023-05-18T01:17:54.438Z,367.00
2023-05-18T01:18:54.475Z,368.00
2023-05-18T01:19:54.485Z,367.00
2023-05-18T01:20:54.553Z,367.00
2023-05-18T01:21:54.604Z,365.00
2023-05-18T01:22:54.659Z,366.00
2023-05-18T01:23:54.742Z,366.00
2023-05-18T01:24:54.888Z,366.00
2023-05-18T01:25:54.843Z,365.00
2023-05-18T01:26:54.922Z,364.00
2023-05-18T01:27:54.956Z,366.00
2023-05-18T01:28:55.010Z,365.00
2023-05-18T01:29:55.081Z,366.00
2023-05-18T01:30:55.147Z,364.00
2023-05-18T01:31:55.184Z,365.00
2023-05-18T01:32:55.275Z,368.00
2023-05-18T01:33:55.308Z,368.00
2023-05-18T01:34:55.363Z,367.00
2023-05-18T01:35:55.436Z,368.00
2023-05-18T01:36:55.483Z,368.00
2023-05-18T01:37:55.557Z,369.00
2023-05-18T01:38:55.605Z,366.00
2023-05-18T01:39:55.669Z,366.00
2023-05-18T01:40:55.733Z,365.00
2023-05-18T01:41:55.782Z,366.00
2023-05-18T01:42:55.863Z,366.00
2023-05-18T01:43:55.926Z,366.00
2023-05-18T01:44:55.968Z,368.00
2023-05-18T01:45:56.131Z,366.00
2023-05-18T01:46:56.099Z,364.00
2023-05-18T01:47:56.181Z,361.00
2023-05-18T01:48:56.219Z,360.00
2023-05-18T01:49:56.285Z,359.00
2023-05-18T01:50:56.339Z,360.00
2023-05-18T01:51:56.394Z,360.00
2023-05-18T01:52:56.462Z,361.00
2023-05-18T01:53:56.527Z,358.00
2023-05-18T01:54:56.584Z,359.00
2023-05-18T01:55:56.654Z,357.00
2023-05-18T01:56:56.703Z,357.00
2023-05-18T01:57:56.709Z,357.00
2023-05-18T01:58:56.726Z,358.00
2023-05-18T01:59:56.735Z,357.00
2023-05-18T02:00:56.748Z,358.00
2023-05-18T02:01:59.462Z,357.00
2023-05-18T02:02:56.786Z,356.00
2023-05-18T02:03:56.852Z,357.00
2023-05-18T02:04:56.784Z,357.00
2023-05-18T02:05:56.778Z,356.00
2023-05-18T02:06:56.793Z,358.00
2023-05-18T02:07:56.792Z,357.00
2023-05-18T02:08:56.791Z,358.00
2023-05-18T02:09:56.799Z,357.00
2023-05-18T02:10:56.794Z,357.00
2023-05-18T02:11:56.803Z,356.00
2023-05-18T02:12:56.857Z,357.00
2023-05-18T02:13:56.930Z,357.00
2023-05-18T02:14:56.994Z,358.00
2023-05-18T02:15:57.061Z,359.00
2023-05-18T02:16:57.110Z,357.00
2023-05-18T02:17:57.206Z,357.00
2023-05-18T02:18:57.774Z,358.00
2023-05-18T02:19:57.298Z,357.00
2023-05-18T02:20:57.379Z,356.00
2023-05-18T02:21:57.581Z,356.00
2023-05-18T02:22:57.614Z,357.00
2023-05-18T02:23:57.600Z,357.00
2023-05-18T02:24:57.606Z,356.00
2023-05-18T02:25:57.669Z,354.00
2023-05-18T02:26:57.749Z,354.00
2023-05-18T02:27:57.807Z,355.00
2023-05-18T02:28:57.870Z,354.00
2023-05-18T02:29:57.957Z,356.00
2023-05-18T02:30:57.984Z,354.00
2023-05-18T02:31:58.097Z,353.00
2023-05-18T02:32:58.143Z,350.00
2023-05-18T02:33:58.114Z,350.00
2023-05-18T02:34:58.125Z,350.00
2023-05-18T02:35:58.124Z,350.00
2023-05-18T02:36:58.233Z,351.00
2023-05-18T02:37:58.150Z,352.00
2023-05-18T02:38:58.168Z,354.00
2023-05-18T02:39:58.155Z,351.00
2023-05-18T02:40:58.157Z,350.00
2023-05-18T02:41:58.168Z,349.00
2023-05-18T02:42:58.172Z,349.00
2023-05-18T02:43:58.198Z,352.00
2023-05-18T02:44:58.388Z,352.00
2023-05-18T02:45:58.369Z,350.00
2023-05-18T02:46:58.392Z,349.00
2023-05-18T02:47:58.515Z,349.00
2023-05-18T02:48:58.522Z,353.00
2023-05-18T02:49:58.583Z,352.00
2023-05-18T02:50:58.670Z,349.00
2023-05-18T02:51:58.703Z,348.00
2023-05-18T02:52:58.779Z,346.00
2023-05-18T02:53:58.827Z,344.00
2023-05-18T02:54:58.901Z,344.00
2023-05-18T02:55:58.946Z,342.00
2023-05-18T02:56:59.012Z,344.00
2023-05-18T02:57:59.077Z,345.00
2023-05-18T02:58:59.147Z,345.00
2023-05-18T02:59:59.219Z,343.00
2023-05-18T03:00:59.331Z,343.00
2023-05-18T03:01:59.430Z,341.00
2023-05-18T03:02:59.538Z,341.00
2023-05-18T03:03:59.510Z,342.00
2023-05-18T03:04:59.456Z,345.00
2023-05-18T03:05:59.535Z,344.00
2023-05-18T03:06:59.463Z,342.00
2023-05-18T03:07:59.469Z,342.00
2023-05-18T03:08:59.495Z,342.00
2023-05-18T03:09:59.499Z,344.00
2023-05-18T03:10:59.503Z,344.00
2023-05-18T03:11:59.506Z,343.00
2023-05-18T03:12:59.575Z,344.00
2023-05-18T03:13:59.638Z,344.00
2023-05-18T03:14:59.747Z,343.00
2023-05-18T03:15:59.767Z,342.00
2023-05-18T03:16:59.882Z,342.00
2023-05-18T03:17:59.959Z,343.00
2023-05-18T03:18:59.999Z,346.00
2023-05-18T03:20:00.045Z,350.00
2023-05-18T03:21:00.146Z,351.00
2023-05-18T03:22:00.216Z,351.00
2023-05-18T03:23:00.258Z,350.00
2023-05-18T03:24:00.328Z,349.00
2023-05-18T03:25:00.396Z,351.00
2023-05-18T03:26:00.482Z,353.00
2023-05-18T03:27:00.535Z,349.00
2023-05-18T03:28:00.613Z,347.00
2023-05-18T03:29:00.690Z,346.00
2023-05-18T03:30:00.762Z,347.00
2023-05-18T03:31:00.837Z,347.00
2023-05-18T03:32:00.893Z,347.00
2023-05-18T03:33:01.015Z,347.00
2023-05-18T03:34:01.029Z,350.00
2023-05-18T03:35:01.211Z,349.00
2023-05-18T03:36:01.164Z,347.00
2023-05-18T03:37:01.236Z,346.00
2023-05-18T03:38:01.328Z,346.00
2023-05-18T03:39:01.372Z,347.00
2023-05-18T03:40:01.451Z,347.00
2023-05-18T03:41:01.516Z,348.00
2023-05-18T03:42:01.636Z,351.00
2023-05-18T03:43:01.652Z,351.00
2023-05-18T03:44:01.709Z,352.00
2023-05-18T03:45:01.774Z,352.00
2023-05-18T03:46:01.966Z,351.00
2023-05-18T03:47:01.909Z,351.00
2023-05-18T03:48:02.018Z,352.00
2023-05-18T03:49:02.057Z,351.00
2023-05-18T03:50:02.140Z,348.00
2023-05-18T03:51:02.202Z,346.00
2023-05-18T03:52:02.254Z,345.00
2023-05-18T03:53:02.332Z,341.00
2023-05-18T03:54:02.395Z,342.00
2023-05-18T03:55:02.476Z,344.00
2023-05-18T03:56:02.532Z,346.00
2023-05-18T03:57:02.645Z,346.00
2023-05-18T03:58:02.665Z,344.00
2023-05-18T03:59:02.754Z,343.00
2023-05-18T04:00:02.804Z,341.00
2023-05-18T04:01:02.894Z,342.00
2023-05-18T04:02:02.967Z,340.00
2023-05-18T04:03:03.093Z,340.00
2023-05-18T04:04:03.117Z,341.00
2023-05-18T04:05:03.166Z,343.00
2023-05-18T04:06:03.249Z,341.00
2023-05-18T04:07:03.305Z,341.00
2023-05-18T04:08:03.376Z,339.00
2023-05-18T04:09:03.450Z,338.00
2023-05-18T04:10:03.525Z,339.00
2023-05-18T04:11:03.561Z,342.00
2023-05-18T04:12:03.629Z,343.00
2023-05-18T04:13:03.703Z,341.00
2023-05-18T04:14:03.762Z,339.00
2023-05-18T04:15:03.834Z,340.00
2023-05-18T04:16:03.995Z,338.00
2023-05-18T04:17:03.968Z,339.00
2023-05-18T04:18:04.079Z,341.00
2023-05-18T04:19:06.363Z,338.00
2023-05-18T04:20:04.122Z,340.00
2023-05-18T04:21:04.119Z,340.00
2023-05-18T04:22:04.115Z,340.00
2023-05-18T04:23:04.124Z,339.00
2023-05-18T04:24:04.125Z,338.00
2023-05-18T04:25:04.126Z,337.00
2023-05-18T04:26:04.127Z,339.00
2023-05-18T04:27:04.130Z,339.00
2023-05-18T04:28:04.146Z,340.00
2023-05-18T04:29:04.139Z,339.00
2023-05-18T04:30:04.139Z,340.00
2023-05-18T04:31:04.144Z,342.00
2023-05-18T04:32:04.168Z,339.00
2023-05-18T04:33:04.240Z,338.00
2023-05-18T04:34:04.210Z,339.00
2023-05-18T04:35:04.275Z,338.00
2023-05-18T04:36:04.356Z,339.00
2023-05-18T04:37:04.495Z,337.00
2023-05-18T04:38:04.481Z,337.00
2023-05-18T04:39:04.546Z,337.00
2023-05-18T04:40:04.618Z,333.00
2023-05-18T04:41:04.687Z,332.00
2023-05-18T04:42:04.760Z,335.00
2023-05-18T04:43:04.836Z,334.00
2023-05-18T04:44:04.874Z,335.00
2023-05-18T04:45:04.951Z,334.00
2023-05-18T04:46:05.031Z,333.00
2023-05-18T04:47:05.104Z,331.00
2023-05-18T04:48:05.232Z,332.00
2023-05-18T04:49:05.246Z,330.00
2023-05-18T04:50:05.317Z,328.00
2023-05-18T04:51:05.389Z,329.00
2023-05-18T04:52:05.452Z,330.00
2023-05-18T04:53:05.538Z,332.00
2023-05-18T04:54:05.606Z,333.00
2023-05-18T04:55:05.705Z,333.00
2023-05-18T04:56:05.781Z,333.00
2023-05-18T04:57:05.836Z,331.00
2023-05-18T04:58:05.912Z,332.00
2023-05-18T04:59:05.984Z,332.00
2023-05-18T05:00:06.076Z,337.00
2023-05-18T05:01:06.160Z,335.00
2023-05-18T05:02:06.198Z,332.00
2023-05-18T05:03:06.361Z,330.00
2023-05-18T05:04:06.358Z,332.00
2023-05-18T05:05:06.430Z,331.00
2023-05-18T05:06:06.499Z,333.00
2023-05-18T05:07:06.559Z,334.00
2023-05-18T05:08:06.623Z,333.00
2023-05-18T05:09:06.687Z,336.00
2023-05-18T05:10:06.741Z,334.00
2023-05-18T05:11:06.791Z,335.00
2023-05-18T05:12:06.856Z,335.00
2023-05-18T05:13:06.923Z,335.00
2023-05-18T05:14:06.975Z,333.00
2023-05-18T05:15:07.037Z,332.00
2023-05-18T05:16:07.113Z,329.00
2023-05-18T05:17:07.169Z,330.00
2023-05-18T05:18:07.241Z,326.00
2023-05-18T05:19:07.299Z,326.00
2023-05-18T05:20:07.352Z,327.00
2023-05-18T05:21:07.422Z,327.00
2023-05-18T05:22:07.457Z,327.00
2023-05-18T05:23:07.557Z,328.00
2023-05-18T05:24:07.586Z,327.00
2023-05-18T05:25:07.664Z,325.00
2023-05-18T05:26:07.743Z,324.00
2023-05-18T05:27:07.787Z,324.00
2023-05-18T05:28:07.836Z,324.00
2023-05-18T05:29:07.910Z,324.00
2023-05-18T05:30:07.981Z,323.00
2023-05-18T05:31:08.056Z,325.00
2023-05-18T05:32:08.087Z,325.00
2023-05-18T05:33:08.216Z,324.00
2023-05-18T05:34:08.227Z,325.00
2023-05-18T05:35:08.287Z,326.00
2023-05-18T05:36:08.337Z,325.00
2023-05-18T05:37:08.397Z,325.00
2023-05-18T05:38:08.467Z,323.00
2023-05-18T05:39:08.533Z,324.00
2023-05-18T05:40:08.601Z,324.00
2023-05-18T05:41:08.680Z,325.00
2023-05-18T05:42:08.769Z,327.00
2023-05-18T05:43:08.811Z,327.00
2023-05-18T05:44:08.891Z,329.00
2023-05-18T05:45:08.947Z,327.00
2023-05-18T05:46:09.004Z,330.00
2023-05-18T05:47:09.091Z,328.00
2023-05-18T05:48:10.472Z,327.00
2023-05-18T05:49:09.409Z,328.00
2023-05-18T05:50:09.479Z,329.00
2023-05-18T05:51:09.511Z,329.00
2023-05-18T05:52:09.584Z,329.00
2023-05-18T05:53:09.695Z,328.00
2023-05-18T05:54:10.847Z,328.00
2023-05-18T05:55:09.807Z,325.00
2023-05-18T05:56:09.828Z,326.00
2023-05-18T05:57:09.906Z,327.00
2023-05-18T05:58:09.967Z,325.00
2023-05-18T05:59:10.033Z,322.00
2023-05-18T06:00:10.075Z,321.00
2023-05-18T06:01:10.165Z,320.00
2023-05-18T06:02:10.305Z,320.00
2023-05-18T06:03:10.334Z,320.00
2023-05-18T06:04:10.371Z,322.00
2023-05-18T06:05:10.425Z,323.00
2023-05-18T06:06:10.489Z,322.00
2023-05-18T06:07:10.523Z,323.00
2023-05-18T06:08:10.598Z,323.00
2023-05-18T06:09:10.640Z,321.00
2023-05-18T06:10:10.712Z,323.00
2023-05-18T06:11:11.576Z,320.00
2023-05-18T06:12:10.876Z,319.00
2023-05-18T06:13:10.879Z,321.00
2023-05-18T06:14:10.911Z,321.00
2023-05-18T06:15:11.036Z,320.00
2023-05-18T06:16:11.082Z,321.00
2023-05-18T06:17:11.106Z,319.00
2023-05-18T06:18:13.374Z,319.00
2023-05-18T06:19:11.256Z,320.00
2023-05-18T06:20:11.374Z,318.00
2023-05-18T06:21:11.297Z,318.00
2023-05-18T06:22:11.338Z,318.00
2023-05-18T06:23:11.430Z,319.00
2023-05-18T06:24:11.444Z,319.00
2023-05-18T06:25:11.501Z,320.00
2023-05-18T06:26:11.529Z,318.00
2023-05-18T06:27:11.604Z,319.00
2023-05-18T06:28:11.630Z,317.00
2023-05-18T06:29:11.690Z,316.00
2023-05-18T06:30:11.747Z,317.00
2023-05-18T06:31:11.790Z,316.00
2023-05-18T06:32:11.835Z,315.00
2023-05-18T06:33:11.912Z,315.00
2023-05-18T06:34:11.906Z,317.00
2023-05-18T06:35:12.376Z,317.00
2023-05-18T06:36:12.040Z,317.00
2023-05-18T06:37:12.051Z,316.00
2023-05-18T06:38:12.110Z,318.00
2023-05-18T06:39:12.149Z,319.00
2023-05-18T06:40:12.206Z,318.00
2023-05-18T06:41:12.247Z,319.00
2023-05-18T06:42:12.284Z,318.00
2023-05-18T06:43:12.373Z,319.00
2023-05-18T06:44:12.373Z,319.00
2023-05-18T06:45:12.469Z,317.00
2023-05-18T06:46:12.590Z,315.00
2023-05-18T06:47:12.503Z,314.00
2023-05-18T06:48:12.544Z,317.00
2023-05-18T06:49:12.588Z,319.00
2023-05-18T06:50:12.645Z,319.00
2023-05-18T06:51:12.683Z,320.00
2023-05-18T06:52:12.776Z,319.00
2023-05-18T06:53:12.765Z,318.00
2023-05-18T06:54:12.832Z,317.00
2023-05-18T06:55:12.926Z,318.00
2023-05-18T06:56:12.896Z,317.00
2023-05-18T06:57:12.957Z,318.00
2023-05-18T06:58:13.075Z,318.00
2023-05-18T06:59:13.053Z,317.00
2023-05-18T07:00:13.032Z,316.00
2023-05-18T07:01:13.876Z,316.00
2023-05-18T07:02:13.037Z,316.00
2023-05-18T07:03:13.110Z,314.00
2023-05-18T07:04:13.201Z,314.00
2023-05-18T07:05:13.046Z,314.00
2023-05-18T07:06:13.016Z,314.00
2023-05-18T07:07:13.014Z,311.00
2023-05-18T07:08:13.041Z,311.00
2023-05-18T07:09:12.979Z,313.00
2023-05-18T07:10:12.980Z,311.00
2023-05-18T07:11:12.986Z,310.00
2023-05-18T07:12:13.020Z,310.00
2023-05-18T07:13:13.093Z,312.00
2023-05-18T07:14:13.126Z,312.00
2023-05-18T07:15:13.179Z,310.00
2023-05-18T07:16:13.381Z,309.00
2023-05-18T07:17:13.230Z,309.00
2023-05-18T07:18:13.267Z,311.00
2023-05-18T07:19:13.355Z,312.00
2023-05-18T07:20:13.286Z,313.00
2023-05-18T07:21:13.282Z,313.00
2023-05-18T07:22:13.294Z,312.00
2023-05-18T07:23:13.304Z,318.00
2023-05-18T07:24:13.346Z,318.00
2023-05-18T07:25:13.379Z,316.00
2023-05-18T07:26:13.359Z,317.00
2023-05-18T07:27:13.362Z,318.00
2023-05-18T07:28:13.425Z,319.00
2023-05-18T07:29:13.427Z,318.00
2023-05-18T07:30:13.471Z,317.00
2023-05-18T07:31:13.448Z,317.00
2023-05-18T07:32:13.454Z,317.00
2023-05-18T07:33:13.530Z,317.00
2023-05-18T07:34:13.495Z,318.00
2023-05-18T07:35:13.433Z,319.00
2023-05-18T07:36:13.433Z,321.00
2023-05-18T07:37:13.426Z,316.00
2023-05-18T07:38:13.401Z,314.00
2023-05-18T07:39:13.402Z,317.00
2023-05-18T07:40:13.472Z,320.00
2023-05-18T07:41:13.418Z,320.00
2023-05-18T07:42:13.406Z,321.00
2023-05-18T07:43:13.448Z,319.00
2023-05-18T07:44:13.388Z,319.00
2023-05-18T07:45:13.377Z,318.00
2023-05-18T07:46:13.479Z,318.00
2023-05-18T07:47:13.375Z,318.00
2023-05-18T07:48:13.566Z,318.00
2023-05-18T07:49:13.351Z,317.00
2023-05-18T07:50:13.358Z,317.00
2023-05-18T07:51:13.352Z,316.00
2023-05-18T07:52:13.330Z,312.00
2023-05-18T07:53:13.327Z,312.00
2023-05-18T07:54:13.328Z,311.00
2023-05-18T07:55:13.355Z,311.00
2023-05-18T07:56:13.401Z,310.00
2023-05-18T07:57:13.367Z,308.00
2023-05-18T07:58:13.405Z,307.00
2023-05-18T07:59:13.439Z,308.00
2023-05-18T08:00:13.434Z,310.00
2023-05-18T08:01:13.470Z,311.00
2023-05-18T08:02:13.524Z,311.00
2023-05-18T08:03:13.589Z,310.00
2023-05-18T08:04:13.584Z,312.00
2023-05-18T08:05:13.574Z,314.00
2023-05-18T08:06:13.577Z,313.00
2023-05-18T08:07:13.621Z,314.00
2023-05-18T08:08:13.630Z,311.00
2023-05-18T08:09:13.650Z,312.00
2023-05-18T08:10:13.702Z,313.00
2023-05-18T08:11:13.665Z,315.00
2023-05-18T08:12:13.701Z,316.00
2023-05-18T08:13:13.733Z,316.00
2023-05-18T08:14:13.844Z,315.00
2023-05-18T08:15:13.774Z,316.00
2023-05-18T08:16:13.813Z,316.00
2023-05-18T08:17:13.839Z,315.00
2023-05-18T08:18:13.838Z,315.00
2023-05-18T08:19:13.922Z,314.00
2023-05-18T08:20:13.857Z,312.00
2023-05-18T08:21:13.910Z,312.00
2023-05-18T08:22:13.895Z,314.00
2023-05-18T08:23:13.980Z,317.00
2023-05-18T08:24:13.989Z,314.00
2023-05-18T08:25:14.025Z,313.00
2023-05-18T08:26:14.910Z,312.00
2023-05-18T08:27:13.965Z,311.00
2023-05-18T08:28:13.990Z,312.00
2023-05-18T08:29:13.993Z,311.00
2023-05-18T08:30:14.010Z,310.00
2023-05-18T08:31:14.096Z,311.00
2023-05-18T08:32:14.127Z,313.00
2023-05-18T08:33:14.139Z,313.00
2023-05-18T08:34:14.073Z,311.00
2023-05-18T08:35:14.108Z,312.00
2023-05-18T08:36:14.117Z,311.00
2023-05-18T08:37:14.203Z,313.00
2023-05-18T08:38:14.142Z,312.00
2023-05-18T08:39:14.157Z,311.00
2023-05-18T08:40:14.266Z,309.00
2023-05-18T08:41:14.210Z,309.00
2023-05-18T08:42:14.224Z,306.00
2023-05-18T08:43:14.231Z,306.00
2023-05-18T08:44:14.232Z,308.00
2023-05-18T08:45:14.254Z,309.00
2023-05-18T08:46:14.297Z,306.00
2023-05-18T08:47:14.273Z,308.00
2023-05-18T08:48:14.367Z,308.00
2023-05-18T08:49:14.351Z,307.00
2023-05-18T08:50:14.333Z,307.00
2023-05-18T08:51:14.326Z,307.00
2023-05-18T08:52:14.340Z,305.00
2023-05-18T08:53:14.392Z,305.00
2023-05-18T08:54:14.334Z,305.00
2023-05-18T08:55:14.371Z,302.00
2023-05-18T08:56:14.337Z,301.00
2023-05-18T08:57:14.336Z,303.00
2023-05-18T08:58:14.320Z,302.00
2023-05-18T08:59:14.326Z,303.00
2023-05-18T09:00:14.338Z,305.00
2023-05-18T09:01:14.347Z,305.00
2023-05-18T09:02:14.294Z,305.00
2023-05-18T09:03:14.384Z,304.00
2023-05-18T09:04:14.290Z,303.00
2023-05-18T09:05:14.314Z,300.00
2023-05-18T09:06:14.247Z,301.00
2023-05-18T09:07:14.233Z,301.00
2023-05-18T09:08:14.225Z,301.00
2023-05-18T09:09:14.809Z,303.00
2023-05-18T09:10:14.267Z,302.00
2023-05-18T09:11:14.229Z,303.00
2023-05-18T09:12:14.355Z,303.00
2023-05-18T09:13:14.208Z,304.00
2023-05-18T09:14:14.195Z,305.00
2023-05-18T09:15:14.177Z,305.00
2023-05-18T09:16:14.218Z,305.00
2023-05-18T09:17:14.178Z,304.00
2023-05-18T09:18:14.215Z,303.00
2023-05-18T09:19:14.229Z,302.00
2023-05-18T09:20:14.186Z,301.00
2023-05-18T09:21:14.219Z,300.00
2023-05-18T09:22:14.119Z,300.00
2023-05-18T09:23:14.118Z,300.00
2023-05-18T09:24:14.121Z,298.00
2023-05-18T09:25:14.131Z,295.00
2023-05-18T09:26:14.122Z,294.00
2023-05-18T09:27:14.096Z,294.00
2023-05-18T09:28:14.088Z,296.00
2023-05-18T09:29:14.101Z,299.00
2023-05-18T09:30:14.172Z,299.00
2023-05-18T09:31:14.252Z,301.00
2023-05-18T09:32:14.307Z,300.00
2023-05-18T09:33:14.461Z,298.00
2023-05-18T09:34:14.405Z,301.00
2023-05-18T09:35:14.477Z,302.00
2023-05-18T09:36:14.518Z,303.00
2023-05-18T09:37:14.592Z,303.00
2023-05-18T09:38:14.655Z,304.00
2023-05-18T09:39:14.723Z,305.00
2023-05-18T09:40:14.794Z,304.00
2023-05-18T09:41:14.834Z,302.00
2023-05-18T09:42:14.874Z,303.00
2023-05-18T09:43:14.933Z,303.00
2023-05-18T09:44:15.007Z,302.00
2023-05-18T09:45:15.039Z,301.00
2023-05-18T09:46:15.194Z,297.00
2023-05-18T09:47:15.320Z,298.00
2023-05-18T09:48:15.295Z,297.00
2023-05-18T09:49:15.281Z,298.00
2023-05-18T09:50:15.374Z,297.00
2023-05-18T09:51:15.387Z,296.00
2023-05-18T09:52:15.436Z,296.00
2023-05-18T09:53:15.512Z,296.00
2023-05-18T09:54:15.587Z,296.00
2023-05-18T09:55:15.984Z,297.00
2023-05-18T09:56:15.742Z,297.00
2023-05-18T09:57:15.747Z,297.00
2023-05-18T09:58:15.777Z,297.00
2023-05-18T09:59:15.816Z,298.00
2023-05-18T10:00:15.884Z,300.00
2023-05-18T10:01:15.972Z,301.00
2023-05-18T10:02:15.997Z,301.00
2023-05-18T10:03:16.045Z,300.00
2023-05-18T10:04:16.139Z,302.00
2023-05-18T10:05:16.167Z,301.00
2023-05-18T10:06:16.171Z,299.00
2023-05-18T10:07:16.348Z,299.00
2023-05-18T10:08:16.309Z,298.00
2023-05-18T10:09:16.351Z,299.00
2023-05-18T10:10:16.412Z,298.00
2023-05-18T10:11:16.417Z,297.00
2023-05-18T10:12:16.499Z,295.00
2023-05-18T10:13:16.513Z,296.00
2023-05-18T10:14:16.591Z,296.00
2023-05-18T10:15:16.634Z,296.00
2023-05-18T10:16:16.754Z,293.00
2023-05-18T10:17:17.423Z,291.00
2023-05-18T10:18:16.852Z,291.00
2023-05-18T10:19:16.890Z,290.00
2023-05-18T10:20:16.900Z,288.00
2023-05-18T10:21:16.898Z,289.00
2023-05-18T10:22:16.959Z,287.00
2023-05-18T10:23:17.004Z,287.00
2023-05-18T10:24:17.034Z,286.00
2023-05-18T10:25:17.078Z,288.00
2023-05-18T10:26:17.172Z,288.00
2023-05-18T10:27:17.159Z,289.00
2023-05-18T10:28:17.199Z,290.00
2023-05-18T10:29:17.310Z,290.00
2023-05-18T10:30:17.299Z,288.00
2023-05-18T10:31:17.397Z,289.00
2023-05-18T10:32:17.376Z,290.00
2023-05-18T10:33:28.342Z,291.00
2023-05-18T10:34:18.441Z,290.00
2023-05-18T10:35:17.419Z,291.00
2023-05-18T10:36:17.402Z,293.00
2023-05-18T10:37:17.381Z,297.00
2023-05-18T10:38:17.371Z,298.00
2023-05-18T10:39:17.366Z,299.00
2023-05-18T10:40:17.411Z,300.00
2023-05-18T10:41:17.357Z,301.00
2023-05-18T10:42:17.342Z,301.00
2023-05-18T10:43:19.118Z,296.00
2023-05-18T10:44:17.508Z,296.00
2023-05-18T10:45:17.563Z,292.00
2023-05-18T10:46:17.657Z,290.00
2023-05-18T10:47:17.698Z,290.00
2023-05-18T10:48:17.707Z,291.00
2023-05-18T10:49:17.656Z,293.00
2023-05-18T10:50:17.737Z,295.00
2023-05-18T10:51:17.720Z,293.00
2023-05-18T10:52:17.616Z,291.00
2023-05-18T10:53:17.600Z,291.00
2023-05-18T10:54:17.638Z,292.00
2023-05-18T10:55:17.609Z,293.00
2023-05-18T10:56:17.588Z,292.00
2023-05-18T10:57:17.570Z,291.00
2023-05-18T10:58:17.583Z,291.00
2023-05-18T10:59:17.530Z,292.00
2023-05-18T11:00:17.543Z,295.00
2023-05-18T11:01:17.610Z,296.00
2023-05-18T11:02:17.633Z,297.00
2023-05-18T11:03:17.680Z,298.00
2023-05-18T11:04:17.719Z,296.00
2023-05-18T11:05:17.758Z,296.00
2023-05-18T11:06:17.764Z,291.00
2023-05-18T11:07:17.808Z,289.00
2023-05-18T11:08:17.815Z,290.00
2023-05-18T11:09:17.872Z,290.00
2023-05-18T11:10:17.974Z,286.00
2023-05-18T11:11:19.325Z,284.00
2023-05-18T11:12:17.956Z,285.00
2023-05-18T11:13:17.942Z,288.00
2023-05-18T11:14:17.940Z,287.00
2023-05-18T11:15:17.933Z,287.00
2023-05-18T11:16:17.938Z,289.00
2023-05-18T11:17:17.951Z,290.00
2023-05-18T11:18:18.060Z,289.00
2023-05-18T11:19:17.991Z,289.00
2023-05-18T11:20:17.850Z,288.00
2023-05-18T11:21:17.837Z,286.00
2023-05-18T11:22:17.811Z,284.00
2023-05-18T11:23:17.817Z,282.00
2023-05-18T11:24:17.831Z,281.00
2023-05-18T11:25:17.786Z,282.00
2023-05-18T11:26:17.753Z,284.00
2023-05-18T11:27:17.749Z,285.00
2023-05-18T11:28:17.722Z,284.00
2023-05-18T11:29:17.757Z,282.00
2023-05-18T11:30:17.796Z,283.00
2023-05-18T11:31:17.798Z,286.00
2023-05-18T11:32:20.857Z,287.00
2023-05-18T11:33:18.824Z,285.00
2023-05-18T11:34:17.767Z,286.00
2023-05-18T11:35:17.782Z,288.00
2023-05-18T11:36:17.734Z,288.00
2023-05-18T11:37:17.743Z,289.00
2023-05-18T11:38:17.735Z,288.00
2023-05-18T11:39:17.709Z,289.00
2023-05-18T11:40:17.709Z,290.00
2023-05-18T11:41:17.676Z,287.00
2023-05-18T11:42:17.659Z,286.00
2023-05-18T11:43:17.652Z,288.00
2023-05-18T11:44:17.671Z,287.00
2023-05-18T11:45:17.651Z,288.00
2023-05-18T11:46:17.593Z,289.00
2023-05-18T11:47:17.582Z,290.00
2023-05-18T11:48:17.651Z,291.00
2023-05-18T11:49:17.561Z,292.00
2023-05-18T11:50:17.553Z,290.00
2023-05-18T11:51:17.525Z,290.00
2023-05-18T11:52:17.511Z,289.00
2023-05-18T11:53:17.530Z,290.00
2023-05-18T11:54:17.488Z,290.00
2023-05-18T11:55:17.473Z,289.00
2023-05-18T11:56:17.458Z,291.00
2023-05-18T11:57:18.506Z,293.00
2023-05-18T11:58:17.423Z,290.00
2023-05-18T11:59:17.409Z,290.00
2023-05-18T12:00:17.403Z,287.00
2023-05-18T12:01:17.408Z,289.00
2023-05-18T12:02:17.399Z,287.00
2023-05-18T12:03:17.443Z,289.00
2023-05-18T12:04:17.551Z,290.00
2023-05-18T12:05:17.376Z,288.00
2023-05-18T12:06:17.339Z,289.00
2023-05-18T12:07:17.358Z,291.00
2023-05-18T12:08:17.369Z,291.00
2023-05-18T12:09:17.344Z,289.00
2023-05-18T12:10:17.442Z,288.00
2023-05-18T12:11:17.349Z,289.00
2023-05-18T12:12:17.346Z,290.00
2023-05-18T12:13:17.348Z,292.00
2023-05-18T12:14:17.324Z,292.00
2023-05-18T12:15:17.628Z,294.00
2023-05-18T12:16:17.365Z,295.00
2023-05-18T12:17:17.339Z,294.00
2023-05-18T12:18:17.388Z,294.00
2023-05-18T12:19:17.416Z,295.00
2023-05-18T12:20:17.427Z,295.00
2023-05-18T12:21:17.359Z,293.00
2023-05-18T12:22:17.404Z,295.00
2023-05-18T12:23:17.401Z,296.00
2023-05-18T12:24:17.392Z,297.00
2023-05-18T12:25:17.499Z,298.00
2023-05-18T12:26:17.433Z,298.00
2023-05-18T12:27:17.449Z,300.00
2023-05-18T12:28:17.444Z,300.00
2023-05-18T12:29:17.471Z,294.00